sensor_id;sensor_type;location;lat;lon;timestamp;pressure;altitude;pressure_sealevel;temperature;humidity
66742;BME280;53654;54.152;19.432;2023-03-20T00:02:21;101436.04;;;10.77;60.75
66742;BME280;53654;54.152;19.432;2023-03-20T00:04:50;101438.31;;;10.78;60.81
66742;BME280;53654;54.152;19.432;2023-03-20T00:07:18;101438.49;;;10.78;60.79
66742;BME280;53654;54.152;19.432;2023-03-20T00:09:46;101440.05;;;10.79;60.70
66742;BME280;53654;54.152;19.432;2023-03-20T00:12:20;101441.64;;;10.80;61.22
66742;BME280;53654;54.152;19.432;2023-03-20T00:14:50;101440.05;;;10.79;61.53
66742;BME280;53654;54.152;19.432;2023-03-20T00:17:19;101443.90;;;10.80;61.20
66742;BME280;53654;54.152;19.432;2023-03-20T00:19:48;101446.70;;;10.79;61.70
66742;BME280;53654;54.152;19.432;2023-03-20T00:22:16;101440.41;;;10.78;61.93
66742;BME280;53654;54.152;19.432;2023-03-20T00:24:44;101441.27;;;10.77;61.62
66742;BME280;53654;54.152;19.432;2023-03-20T00:27:13;101436.21;;;10.76;61.64
66742;BME280;53654;54.152;19.432;2023-03-20T00:29:43;101439.52;;;10.74;60.93
66742;BME280;53654;54.152;19.432;2023-03-20T00:32:12;101437.09;;;10.74;60.62
66742;BME280;53654;54.152;19.432;2023-03-20T00:34:41;101440.92;;;10.74;61.03
66742;BME280;53654;54.152;19.432;2023-03-20T00:37:09;101444.23;;;10.76;60.76
66742;BME280;53654;54.152;19.432;2023-03-20T00:39:39;101439.70;;;10.77;61.65
66742;BME280;53654;54.152;19.432;2023-03-20T00:42:16;101439.54;;;10.77;61.40
66742;BME280;53654;54.152;19.432;2023-03-20T00:44:51;101439.00;;;10.72;61.27
66742;BME280;53654;54.152;19.432;2023-03-20T00:47:24;101435.50;;;10.70;61.54
66742;BME280;53654;54.152;19.432;2023-03-20T00:49:53;101437.42;;;10.70;61.45
66742;BME280;53654;54.152;19.432;2023-03-20T00:52:23;101432.19;;;10.70;60.66
66742;BME280;53654;54.152;19.432;2023-03-20T00:54:52;101434.29;;;10.71;61.27
66742;BME280;53654;54.152;19.432;2023-03-20T00:57:26;101429.92;;;10.71;61.48
66742;BME280;53654;54.152;19.432;2023-03-20T01:00:06;101427.65;;;10.69;61.52
66742;BME280;53654;54.152;19.432;2023-03-20T01:02:35;101421.20;;;10.69;61.42
66742;BME280;53654;54.152;19.432;2023-03-20T01:05:03;101418.39;;;10.68;61.42
66742;BME280;53654;54.152;19.432;2023-03-20T01:07:32;101415.61;;;10.69;60.84
66742;BME280;53654;54.152;19.432;2023-03-20T01:10:04;101414.91;;;10.71;60.97
66742;BME280;53654;54.152;19.432;2023-03-20T01:12:32;101411.77;;;10.71;60.70
66742;BME280;53654;54.152;19.432;2023-03-20T01:15:00;101404.98;;;10.72;60.08
66742;BME280;53654;54.152;19.432;2023-03-20T01:17:28;101400.44;;;10.73;59.93
66742;BME280;53654;54.152;19.432;2023-03-20T01:19:57;101402.17;;;10.74;59.87
66742;BME280;53654;54.152;19.432;2023-03-20T01:22:25;101400.79;;;10.74;59.93
66742;BME280;53654;54.152;19.432;2023-03-20T01:24:53;101400.09;;;10.75;60.00
66742;BME280;53654;54.152;19.432;2023-03-20T01:27:22;101399.39;;;10.76;59.66
66742;BME280;53654;54.152;19.432;2023-03-20T01:29:50;101402.54;;;10.78;59.47
66742;BME280;53654;54.152;19.432;2023-03-20T01:32:18;101397.30;;;10.81;59.71
66742;BME280;53654;54.152;19.432;2023-03-20T01:34:50;101398.17;;;10.82;60.78
66742;BME280;53654;54.152;19.432;2023-03-20T01:37:25;101397.13;;;10.82;60.81
66742;BME280;53654;54.152;19.432;2023-03-20T01:39:55;101396.77;;;10.82;61.29
66742;BME280;53654;54.152;19.432;2023-03-20T01:42:24;101396.60;;;10.81;61.29
66742;BME280;53654;54.152;19.432;2023-03-20T01:44:52;101398.70;;;10.79;61.66
66742;BME280;53654;54.152;19.432;2023-03-20T01:47:23;101400.61;;;10.78;62.09
66742;BME280;53654;54.152;19.432;2023-03-20T01:53:08;101402.52;;;10.64;62.07
66742;BME280;53654;54.152;19.432;2023-03-20T01:55:42;101403.21;;;10.62;62.63
66742;BME280;53654;54.152;19.432;2023-03-20T01:58:18;101400.24;;;10.59;62.91
66742;BME280;53654;54.152;19.432;2023-03-20T02:00:49;101403.20;;;10.58;63.02
66742;BME280;53654;54.152;19.432;2023-03-20T02:03:18;101399.20;;;10.55;63.14
66742;BME280;53654;54.152;19.432;2023-03-20T02:06:06;101396.21;;;10.50;63.11
66742;BME280;53654;54.152;19.432;2023-03-20T02:09:00;101392.02;;;10.47;62.54
66742;BME280;53654;54.152;19.432;2023-03-20T02:11:33;101391.33;;;10.47;63.02
66742;BME280;53654;54.152;19.432;2023-03-20T02:14:03;101385.73;;;10.48;62.07
66742;BME280;53654;54.152;19.432;2023-03-20T02:16:37;101385.39;;;10.51;61.75
66742;BME280;53654;54.152;19.432;2023-03-20T02:19:54;101385.40;;;10.51;61.97
66742;BME280;53654;54.152;19.432;2023-03-20T02:25:42;101384.34;;;10.47;63.15
66742;BME280;53654;54.152;19.432;2023-03-20T02:45:32;101373.27;;;10.23;67.25
66742;BME280;53654;54.152;19.432;2023-03-20T02:48:38;101376.05;;;10.21;66.64
66742;BME280;53654;54.152;19.432;2023-03-20T02:51:37;101368.54;;;10.20;67.63
66742;BME280;53654;54.152;19.432;2023-03-20T02:54:12;101365.54;;;10.17;68.22
66742;BME280;53654;54.152;19.432;2023-03-20T03:02:08;101361.17;;;10.15;67.56
66742;BME280;53654;54.152;19.432;2023-03-20T03:04:47;101359.25;;;10.14;68.60
66742;BME280;53654;54.152;19.432;2023-03-20T03:07:20;101356.27;;;10.09;69.25
66742;BME280;53654;54.152;19.432;2023-03-20T03:10:29;101354.52;;;10.06;69.74
66742;BME280;53654;54.152;19.432;2023-03-20T03:13:02;101358.84;;;9.97;70.23
66742;BME280;53654;54.152;19.432;2023-03-20T03:15:38;101354.14;;;9.94;70.80
66742;BME280;53654;54.152;19.432;2023-03-20T03:18:13;101356.91;;;9.91;71.12
66742;BME280;53654;54.152;19.432;2023-03-20T03:20:44;101346.96;;;9.88;71.53
66742;BME280;53654;54.152;19.432;2023-03-20T03:23:24;101348.19;;;9.88;71.75
66742;BME280;53654;54.152;19.432;2023-03-20T03:25:55;101345.74;;;9.87;71.90
66742;BME280;53654;54.152;19.432;2023-03-20T03:28:30;101343.48;;;9.87;71.92
66742;BME280;53654;54.152;19.432;2023-03-20T03:31:06;101340.33;;;9.85;71.86
66742;BME280;53654;54.152;19.432;2023-03-20T03:33:38;101335.97;;;9.84;71.92
66742;BME280;53654;54.152;19.432;2023-03-20T03:41:36;101331.58;;;9.76;71.98
66742;BME280;53654;54.152;19.432;2023-03-20T03:44:26;101324.77;;;9.70;71.85
66742;BME280;53654;54.152;19.432;2023-03-20T03:47:04;101320.21;;;9.65;71.43
66742;BME280;53654;54.152;19.432;2023-03-20T03:49:36;101322.64;;;9.63;71.54
66742;BME280;53654;54.152;19.432;2023-03-20T03:52:10;101322.64;;;9.62;71.10
66742;BME280;53654;54.152;19.432;2023-03-20T03:54:44;101318.63;;;9.61;71.46
66742;BME280;53654;54.152;19.432;2023-03-20T03:57:47;101317.56;;;9.58;71.55
66742;BME280;53654;54.152;19.432;2023-03-20T04:00:19;101315.81;;;9.55;71.81
66742;BME280;53654;54.152;19.432;2023-03-20T04:02:54;101314.23;;;9.53;71.78
66742;BME280;53654;54.152;19.432;2023-03-20T04:05:25;101311.23;;;9.48;72.08
66742;BME280;53654;54.152;19.432;2023-03-20T04:07:58;101310.00;;;9.44;72.39
66742;BME280;53654;54.152;19.432;2023-03-20T04:10:26;101311.20;;;9.39;72.49
66742;BME280;53654;54.152;19.432;2023-03-20T04:12:54;101314.66;;;9.34;72.61
66742;BME280;53654;54.152;19.432;2023-03-20T04:15:23;101310.63;;;9.30;72.82
66742;BME280;53654;54.152;19.432;2023-03-20T04:17:54;101314.44;;;9.26;72.23
66742;BME280;53654;54.152;19.432;2023-03-20T04:20:23;101311.11;;;9.23;72.27
66742;BME280;53654;54.152;19.432;2023-03-20T04:22:51;101309.19;;;9.21;72.31
66742;BME280;53654;54.152;19.432;2023-03-20T04:25:22;101305.85;;;9.18;71.98
66742;BME280;53654;54.152;19.432;2023-03-20T04:27:53;101308.95;;;9.12;71.71
66742;BME280;53654;54.152;19.432;2023-03-20T04:30:42;101315.71;;;9.07;71.27
66742;BME280;53654;54.152;19.432;2023-03-20T04:33:44;101313.91;;;8.99;71.76
66742;BME280;53654;54.152;19.432;2023-03-20T04:36:30;101319.08;;;8.92;72.19
66742;BME280;53654;54.152;19.432;2023-03-20T04:38:59;101315.75;;;8.89;72.70
66742;BME280;53654;54.152;19.432;2023-03-20T04:41:27;101312.77;;;8.86;72.82
66742;BME280;53654;54.152;19.432;2023-03-20T04:43:57;101310.32;;;8.83;72.76
66742;BME280;53654;54.152;19.432;2023-03-20T04:46:25;101310.65;;;8.81;72.63
66742;BME280;53654;54.152;19.432;2023-03-20T04:48:53;101312.55;;;8.79;72.51
66742;BME280;53654;54.152;19.432;2023-03-20T04:51:22;101315.49;;;8.79;70.91
66742;BME280;53654;54.152;19.432;2023-03-20T04:53:52;101315.86;;;8.80;70.61
66742;BME280;53654;54.152;19.432;2023-03-20T04:56:20;101322.47;;;8.80;70.91
66742;BME280;53654;54.152;19.432;2023-03-20T04:58:50;101321.95;;;8.80;70.85
66742;BME280;53654;54.152;19.432;2023-03-20T05:01:20;101325.05;;;8.77;71.29
66742;BME280;53654;54.152;19.432;2023-03-20T05:03:50;101322.59;;;8.73;71.81
66742;BME280;53654;54.152;19.432;2023-03-20T05:06:19;101319.95;;;8.68;72.16
66742;BME280;53654;54.152;19.432;2023-03-20T05:08:47;101318.70;;;8.66;72.35
66742;BME280;53654;54.152;19.432;2023-03-20T05:11:17;101320.06;;;8.62;72.43
66742;BME280;53654;54.152;19.432;2023-03-20T05:13:54;101323.16;;;8.58;72.61
66742;BME280;53654;54.152;19.432;2023-03-20T05:16:34;101325.75;;;8.55;72.91
66742;BME280;53654;54.152;19.432;2023-03-20T05:19:18;101326.77;;;8.53;72.84
66742;BME280;53654;54.152;19.432;2023-03-20T05:21:57;101328.84;;;8.52;73.22
66742;BME280;53654;54.152;19.432;2023-03-20T05:24:52;101330.04;;;8.51;73.38
66742;BME280;53654;54.152;19.432;2023-03-20T05:27:39;101332.48;;;8.50;73.24
66742;BME280;53654;54.152;19.432;2023-03-20T05:30:25;101328.45;;;8.47;73.33
66742;BME280;53654;54.152;19.432;2023-03-20T05:32:59;101335.30;;;8.53;73.27
66742;BME280;53654;54.152;19.432;2023-03-20T05:35:27;101331.31;;;8.56;73.42
66742;BME280;53654;54.152;19.432;2023-03-20T05:38:05;101328.02;;;8.57;73.33
66742;BME280;53654;54.152;19.432;2023-03-20T05:40:44;101329.92;;;8.56;73.33
66742;BME280;53654;54.152;19.432;2023-03-20T05:43:19;101323.50;;;8.58;73.11
66742;BME280;53654;54.152;19.432;2023-03-20T05:46:14;101326.48;;;8.61;72.74
66742;BME280;53654;54.152;19.432;2023-03-20T05:48:45;101321.16;;;8.68;72.07
66742;BME280;53654;54.152;19.432;2023-03-20T05:51:39;101314.92;;;8.72;71.76
66742;BME280;53654;54.152;19.432;2023-03-20T05:54:20;101312.71;;;8.78;70.73
66742;BME280;53654;54.152;19.432;2023-03-20T05:57:03;101313.63;;;8.84;70.22
66742;BME280;53654;54.152;19.432;2023-03-20T05:59:56;101323.12;;;8.97;69.53
66742;BME280;53654;54.152;19.432;2023-03-20T06:02:44;101328.48;;;9.17;69.00
66742;BME280;53654;54.152;19.432;2023-03-20T06:05:37;101326.14;;;9.34;68.26
66742;BME280;53654;54.152;19.432;2023-03-20T06:08:05;101330.20;;;9.43;67.90
66742;BME280;53654;54.152;19.432;2023-03-20T06:10:34;101331.84;;;9.55;67.36
66742;BME280;53654;54.152;19.432;2023-03-20T06:13:02;101325.08;;;9.62;67.09
66742;BME280;53654;54.152;19.432;2023-03-20T06:15:30;101324.06;;;9.70;66.98
66742;BME280;53654;54.152;19.432;2023-03-20T06:18:06;101335.44;;;9.81;66.60
66742;BME280;53654;54.152;19.432;2023-03-20T06:20:34;101343.48;;;9.89;66.38
66742;BME280;53654;54.152;19.432;2023-03-20T06:23:03;101338.79;;;9.94;66.21
66742;BME280;53654;54.152;19.432;2023-03-20T06:25:31;101328.35;;;9.97;65.82
66742;BME280;53654;54.152;19.432;2023-03-20T06:28:00;101323.48;;;10.03;65.60
66742;BME280;53654;54.152;19.432;2023-03-20T06:30:29;101319.14;;;10.09;65.64
66742;BME280;53654;54.152;19.432;2023-03-20T06:32:57;101318.27;;;10.11;65.55
66742;BME280;53654;54.152;19.432;2023-03-20T06:35:32;101313.58;;;10.10;65.36
66742;BME280;53654;54.152;19.432;2023-03-20T06:38:01;101317.23;;;10.13;65.41
66742;BME280;53654;54.152;19.432;2023-03-20T06:40:30;101308.35;;;10.16;65.33
66742;BME280;53654;54.152;19.432;2023-03-20T06:42:58;101306.27;;;10.18;65.29
66742;BME280;53654;54.152;19.432;2023-03-20T06:45:34;101305.05;;;10.19;65.38
66742;BME280;53654;54.152;19.432;2023-03-20T06:48:10;101308.56;;;10.21;65.45
66742;BME280;53654;54.152;19.432;2023-03-20T06:50:38;101311.02;;;10.23;65.15
66742;BME280;53654;54.152;19.432;2023-03-20T06:53:06;101312.23;;;10.27;65.25
66742;BME280;53654;54.152;19.432;2023-03-20T06:55:46;101312.60;;;10.31;65.34
66742;BME280;53654;54.152;19.432;2023-03-20T06:58:14;101310.16;;;10.35;65.46
66742;BME280;53654;54.152;19.432;2023-03-20T07:00:43;101316.80;;;10.40;65.70
66742;BME280;53654;54.152;19.432;2023-03-20T07:03:12;101321.72;;;10.44;65.43
66742;BME280;53654;54.152;19.432;2023-03-20T07:05:42;101324.16;;;10.46;65.30
66742;BME280;53654;54.152;19.432;2023-03-20T07:08:10;101324.16;;;10.47;64.94
66742;BME280;53654;54.152;19.432;2023-03-20T07:10:38;101328.88;;;10.49;64.94
66742;BME280;53654;54.152;19.432;2023-03-20T07:13:06;101325.56;;;10.51;64.80
66742;BME280;53654;54.152;19.432;2023-03-20T07:15:36;101325.39;;;10.49;64.70
66742;BME280;53654;54.152;19.432;2023-03-20T07:18:04;101330.96;;;10.48;64.85
66742;BME280;53654;54.152;19.432;2023-03-20T07:20:33;101329.75;;;10.46;64.90
66742;BME280;53654;54.152;19.432;2023-03-20T07:23:01;101332.36;;;10.43;64.84
66742;BME280;53654;54.152;19.432;2023-03-20T07:25:31;101333.22;;;10.41;65.09
66742;BME280;53654;54.152;19.432;2023-03-20T07:28:11;101327.44;;;10.40;65.10
66742;BME280;53654;54.152;19.432;2023-03-20T07:30:41;101328.13;;;10.38;65.22
66742;BME280;53654;54.152;19.432;2023-03-20T07:33:10;101324.49;;;10.40;65.25
66742;BME280;53654;54.152;19.432;2023-03-20T07:35:38;101321.72;;;10.44;65.33
66742;BME280;53654;54.152;19.432;2023-03-20T07:38:07;101315.45;;;10.46;65.26
66742;BME280;53654;54.152;19.432;2023-03-20T07:40:42;101315.10;;;10.49;65.35
66742;BME280;53654;54.152;19.432;2023-03-20T07:43:15;101315.79;;;10.51;65.28
66742;BME280;53654;54.152;19.432;2023-03-20T07:46:07;101314.73;;;10.51;65.36
66742;BME280;53654;54.152;19.432;2023-03-20T07:48:37;101308.48;;;10.52;65.43
66742;BME280;53654;54.152;19.432;2023-03-20T07:51:06;101308.99;;;10.56;65.59
66742;BME280;53654;54.152;19.432;2023-03-20T07:53:34;101310.22;;;10.58;65.71
66742;BME280;53654;54.152;19.432;2023-03-20T07:56:04;101310.73;;;10.61;65.80
66742;BME280;53654;54.152;19.432;2023-03-20T07:58:32;101303.58;;;10.66;65.91
66742;BME280;53654;54.152;19.432;2023-03-20T08:01:02;101306.20;;;10.72;65.92
66742;BME280;53654;54.152;19.432;2023-03-20T08:03:30;101301.32;;;10.77;65.90
66742;BME280;53654;54.152;19.432;2023-03-20T08:05:59;101301.14;;;10.82;65.84
66742;BME280;53654;54.152;19.432;2023-03-20T08:08:28;101299.39;;;10.84;65.69
66742;BME280;53654;54.152;19.432;2023-03-20T08:10:57;101301.13;;;10.89;65.78
66742;BME280;53654;54.152;19.432;2023-03-20T08:13:25;101305.14;;;10.98;66.22
66742;BME280;53654;54.152;19.432;2023-03-20T08:15:53;101304.07;;;11.08;66.15
66742;BME280;53654;54.152;19.432;2023-03-20T08:18:21;101308.42;;;11.18;66.10
66742;BME280;53654;54.152;19.432;2023-03-20T08:20:49;101305.08;;;11.27;65.78
66742;BME280;53654;54.152;19.432;2023-03-20T08:23:17;101298.25;;;11.36;65.69
66742;BME280;53654;54.152;19.432;2023-03-20T08:25:48;101298.22;;;11.44;65.60
66742;BME280;53654;54.152;19.432;2023-03-20T08:28:17;101301.86;;;11.51;65.72
66742;BME280;53654;54.152;19.432;2023-03-20T08:30:45;101303.95;;;11.57;65.61
66742;BME280;53654;54.152;19.432;2023-03-20T08:33:15;101301.83;;;11.63;65.67
66742;BME280;53654;54.152;19.432;2023-03-20T08:35:54;101301.98;;;11.68;65.76
66742;BME280;53654;54.152;19.432;2023-03-20T08:38:23;101296.89;;;11.71;65.96
66742;BME280;53654;54.152;19.432;2023-03-20T08:40:51;101295.31;;;11.77;65.89
66742;BME280;53654;54.152;19.432;2023-03-20T08:43:21;101294.08;;;11.81;65.86
66742;BME280;53654;54.152;19.432;2023-03-20T08:45:49;101300.88;;;11.86;66.08
66742;BME280;53654;54.152;19.432;2023-03-20T08:48:18;101305.23;;;11.90;66.40
66742;BME280;53654;54.152;19.432;2023-03-20T08:50:46;101308.67;;;11.99;66.44
66742;BME280;53654;54.152;19.432;2023-03-20T08:53:14;101311.95;;;12.08;66.33
66742;BME280;53654;54.152;19.432;2023-03-20T08:55:51;101305.45;;;12.14;65.89
66742;BME280;53654;54.152;19.432;2023-03-20T08:58:20;101308.92;;;12.17;65.73
66742;BME280;53654;54.152;19.432;2023-03-20T09:00:48;101306.98;;;12.21;65.99
66742;BME280;53654;54.152;19.432;2023-03-20T09:03:19;101304.31;;;12.27;65.96
66742;BME280;53654;54.152;19.432;2023-03-20T09:05:49;101308.10;;;12.35;66.04
66742;BME280;53654;54.152;19.432;2023-03-20T09:08:19;101311.73;;;12.42;66.10
66742;BME280;53654;54.152;19.432;2023-03-20T09:10:47;101316.40;;;12.49;66.17
66742;BME280;53654;54.152;19.432;2023-03-20T09:13:19;101308.63;;;12.59;66.70
66742;BME280;53654;54.152;19.432;2023-03-20T09:15:55;101303.13;;;12.69;66.55
66742;BME280;53654;54.152;19.432;2023-03-20T09:18:24;101305.67;;;12.78;66.51
66742;BME280;53654;54.152;19.432;2023-03-20T09:20:52;101300.52;;;12.85;66.61
66742;BME280;53654;54.152;19.432;2023-03-20T09:23:20;101303.86;;;12.85;66.74
66742;BME280;53654;54.152;19.432;2023-03-20T09:25:48;101297.42;;;12.81;67.20
66742;BME280;53654;54.152;19.432;2023-03-20T09:28:16;101299.31;;;12.83;67.26
66742;BME280;53654;54.152;19.432;2023-03-20T09:30:44;101302.45;;;12.86;67.44
66742;BME280;53654;54.152;19.432;2023-03-20T09:33:12;101299.97;;;12.89;67.40
66742;BME280;53654;54.152;19.432;2023-03-20T09:35:41;101299.42;;;12.91;67.54
66742;BME280;53654;54.152;19.432;2023-03-20T09:38:10;101298.67;;;12.96;67.71
66742;BME280;53654;54.152;19.432;2023-03-20T09:40:55;101295.45;;;13.02;67.86
66742;BME280;53654;54.152;19.432;2023-03-20T09:51:37;101285.66;;;13.37;68.16
66742;BME280;53654;54.152;19.432;2023-03-20T09:54:37;101285.33;;;13.50;67.91
66742;BME280;53654;54.152;19.432;2023-03-20T09:57:55;101282.70;;;13.65;67.89
66742;BME280;53654;54.152;19.432;2023-03-20T10:00:27;101277.10;;;13.77;67.57
66742;BME280;53654;54.152;19.432;2023-03-20T10:03:01;101272.90;;;13.90;67.18
66742;BME280;53654;54.152;19.432;2023-03-20T10:05:36;101274.17;;;13.99;67.01
66742;BME280;53654;54.152;19.432;2023-03-20T10:08:11;101271.86;;;14.13;67.37
66742;BME280;53654;54.152;19.432;2023-03-20T10:10:49;101273.36;;;14.30;66.84
66742;BME280;53654;54.152;19.432;2023-03-20T10:21:47;101273.47;;;14.89;64.59
66742;BME280;53654;54.152;19.432;2023-03-20T10:24:24;101272.40;;;14.99;64.60
66742;BME280;53654;54.152;19.432;2023-03-20T10:26:58;101268.13;;;15.11;64.23
66742;BME280;53654;54.152;19.432;2023-03-20T10:30:02;101264.88;;;15.25;64.20
66742;BME280;53654;54.152;19.432;2023-03-20T10:40:49;101262.37;;;15.65;62.17
66742;BME280;53654;54.152;19.432;2023-03-20T10:43:20;101260.11;;;15.71;62.09
66742;BME280;53654;54.152;19.432;2023-03-20T10:46:00;101260.66;;;15.79;62.27
66742;BME280;53654;54.152;19.432;2023-03-20T10:48:37;101258.02;;;15.87;62.47
66742;BME280;53654;54.152;19.432;2023-03-20T10:51:12;101258.20;;;15.95;62.17
66742;BME280;53654;54.152;19.432;2023-03-20T10:56:14;101252.77;;;16.09;61.61
66742;BME280;53654;54.152;19.432;2023-03-20T10:58:46;101250.48;;;16.17;61.02
66742;BME280;53654;54.152;19.432;2023-03-20T11:01:16;101245.58;;;16.23;60.66
66742;BME280;53654;54.152;19.432;2023-03-20T11:03:45;101241.20;;;16.29;60.53
66742;BME280;53654;54.152;19.432;2023-03-20T11:06:25;101234.42;;;16.32;60.29
66742;BME280;53654;54.152;19.432;2023-03-20T11:08:55;101232.18;;;16.31;60.11
66742;BME280;53654;54.152;19.432;2023-03-20T11:11:26;101232.30;;;16.33;59.87
66742;BME280;53654;54.152;19.432;2023-03-20T11:13:55;101231.73;;;16.35;60.18
66742;BME280;53654;54.152;19.432;2023-03-20T11:16:33;101226.96;;;16.35;59.83
66742;BME280;53654;54.152;19.432;2023-03-20T11:19:06;101227.03;;;16.32;59.27
66742;BME280;53654;54.152;19.432;2023-03-20T11:21:44;101225.09;;;16.33;58.91
66742;BME280;53654;54.152;19.432;2023-03-20T11:24:45;101223.85;;;16.33;59.15
66742;BME280;53654;54.152;19.432;2023-03-20T11:27:25;101223.88;;;16.32;59.50
66742;BME280;53654;54.152;19.432;2023-03-20T11:29:55;101229.11;;;16.34;59.37
66742;BME280;53654;54.152;19.432;2023-03-20T11:35:09;101225.73;;;16.42;59.15
66742;BME280;53654;54.152;19.432;2023-03-20T11:37:43;101223.91;;;16.45;59.26
66742;BME280;53654;54.152;19.432;2023-03-20T11:43:12;101219.91;;;16.50;59.57
66742;BME280;53654;54.152;19.432;2023-03-20T11:45:43;101212.41;;;16.47;59.77
66742;BME280;53654;54.152;19.432;2023-03-20T11:48:19;101215.98;;;16.45;59.24
66742;BME280;53654;54.152;19.432;2023-03-20T11:50:57;101219.65;;;16.39;58.95
66742;BME280;53654;54.152;19.432;2023-03-20T11:53:32;101233.85;;;16.34;59.31
66742;BME280;53654;54.152;19.432;2023-03-20T11:56:08;101244.19;;;16.22;59.76
66742;BME280;53654;54.152;19.432;2023-03-20T12:01:29;101253.58;;;15.81;60.22
66742;BME280;53654;54.152;19.432;2023-03-20T12:04:08;101255.24;;;15.60;60.85
66742;BME280;53654;54.152;19.432;2023-03-20T12:12:01;101248.35;;;15.07;62.70
66742;BME280;53654;54.152;19.432;2023-03-20T12:14:46;101253.27;;;14.88;63.41
66742;BME280;53654;54.152;19.432;2023-03-20T12:17:29;101250.81;;;14.69;64.27
66742;BME280;53654;54.152;19.432;2023-03-20T12:20:35;101242.21;;;14.59;64.83
66742;BME280;53654;54.152;19.432;2023-03-20T12:25:54;101243.16;;;14.44;65.63
66742;BME280;53654;54.152;19.432;2023-03-20T12:28:29;101242.47;;;14.43;66.14
66742;BME280;53654;54.152;19.432;2023-03-20T12:36:35;101252.02;;;14.36;65.97
66742;BME280;53654;54.152;19.432;2023-03-20T12:39:15;101246.17;;;14.30;66.24
66742;BME280;53654;54.152;19.432;2023-03-20T12:44:48;101253.64;;;14.12;66.50
66742;BME280;53654;54.152;19.432;2023-03-20T12:50:29;101246.05;;;13.91;67.11
66742;BME280;53654;54.152;19.432;2023-03-20T13:01:35;101241.52;;;13.77;67.60
66742;BME280;53654;54.152;19.432;2023-03-20T13:07:38;101237.63;;;13.79;67.51
66742;BME280;53654;54.152;19.432;2023-03-20T13:10:20;101239.11;;;13.86;67.33
66742;BME280;53654;54.152;19.432;2023-03-20T13:24:31;101215.56;;;14.01;66.76
66742;BME280;53654;54.152;19.432;2023-03-20T13:27:11;101219.02;;;14.04;66.58
66742;BME280;53654;54.152;19.432;2023-03-20T13:35:14;101222.92;;;14.12;65.98
66742;BME280;53654;54.152;19.432;2023-03-20T13:37:52;101218.48;;;14.16;65.66
66742;BME280;53654;54.152;19.432;2023-03-20T13:40:24;101210.55;;;14.18;65.10
66742;BME280;53654;54.152;19.432;2023-03-20T13:42:59;101211.38;;;14.21;65.09
66742;BME280;53654;54.152;19.432;2023-03-20T13:48:08;101207.02;;;14.20;64.40
66742;BME280;53654;54.152;19.432;2023-03-20T13:50:48;101202.72;;;14.15;64.31
66742;BME280;53654;54.152;19.432;2023-03-20T13:53:32;101202.79;;;14.11;64.41
66742;BME280;53654;54.152;19.432;2023-03-20T13:56:11;101202.18;;;14.03;64.46
66742;BME280;53654;54.152;19.432;2023-03-20T14:01:50;101195.54;;;13.92;64.87
66742;BME280;53654;54.152;19.432;2023-03-20T14:04:22;101197.75;;;13.83;64.84
66742;BME280;53654;54.152;19.432;2023-03-20T14:06:56;101195.73;;;13.78;64.93
66742;BME280;53654;54.152;19.432;2023-03-20T14:09:37;101197.73;;;13.73;64.87
66742;BME280;53654;54.152;19.432;2023-03-20T14:12:12;101196.77;;;13.66;65.09
66742;BME280;53654;54.152;19.432;2023-03-20T14:14:55;101201.71;;;13.64;65.31
66742;BME280;53654;54.152;19.432;2023-03-20T14:17:28;101203.38;;;13.59;65.46
66742;BME280;53654;54.152;19.432;2023-03-20T14:20:10;101202.18;;;13.56;65.61
66742;BME280;53654;54.152;19.432;2023-03-20T14:22:39;101207.08;;;13.57;65.83
66742;BME280;53654;54.152;19.432;2023-03-20T14:25:17;101208.44;;;13.60;65.42
66742;BME280;53654;54.152;19.432;2023-03-20T14:32:58;101220.70;;;13.60;65.00
66742;BME280;53654;54.152;19.432;2023-03-20T14:35:28;101221.77;;;13.58;65.29
66742;BME280;53654;54.152;19.432;2023-03-20T14:38:06;101225.68;;;13.55;65.35
66742;BME280;53654;54.152;19.432;2023-03-20T14:43:23;101220.05;;;13.43;65.23
66742;BME280;53654;54.152;19.432;2023-03-20T14:46:01;101225.23;;;13.36;65.11
66742;BME280;53654;54.152;19.432;2023-03-20T14:48:43;101235.30;;;13.29;65.13
66742;BME280;53654;54.152;19.432;2023-03-20T14:51:40;101241.89;;;13.17;65.16
66742;BME280;53654;54.152;19.432;2023-03-20T14:56:49;101254.36;;;12.78;64.89
66742;BME280;53654;54.152;19.432;2023-03-20T14:59:19;101259.45;;;12.59;64.96
66742;BME280;53654;54.152;19.432;2023-03-20T15:01:56;101268.75;;;12.35;65.47
66742;BME280;53654;54.152;19.432;2023-03-20T15:04:46;101265.98;;;12.05;66.02
66742;BME280;53654;54.152;19.432;2023-03-20T15:07:21;101269.26;;;11.78;66.92
66742;BME280;53654;54.152;19.432;2023-03-20T15:09:54;101270.20;;;11.58;67.38
66742;BME280;53654;54.152;19.432;2023-03-20T15:12:29;101269.39;;;11.44;67.79
66742;BME280;53654;54.152;19.432;2023-03-20T15:15:01;101265.27;;;11.27;68.16
66742;BME280;53654;54.152;19.432;2023-03-20T15:17:43;101262.66;;;11.16;68.45
66742;BME280;53654;54.152;19.432;2023-03-20T15:20:16;101271.61;;;11.05;68.98
66742;BME280;53654;54.152;19.432;2023-03-20T15:22:57;101265.34;;;10.93;69.52
66742;BME280;53654;54.152;19.432;2023-03-20T15:25:42;101258.73;;;10.84;69.79
66742;BME280;53654;54.152;19.432;2023-03-20T15:28:22;101266.23;;;10.80;69.99
66742;BME280;53654;54.152;19.432;2023-03-20T15:30:55;101271.48;;;10.76;70.40
66742;BME280;53654;54.152;19.432;2023-03-20T15:33:31;101274.97;;;10.70;70.63
66742;BME280;53654;54.152;19.432;2023-03-20T15:36:07;101277.41;;;10.63;71.08